OAKB/KBL METAR and TAF weather

Enter ICAO airport designator
Station Type Date Time Source
OAKB METAR 2019/08/18 08:50 UTC NOAA

OAKB 180850Z 08007KT 020V170 9999 FEW080 30/M03 Q1013 NOSIG RMK A2993 BLU BLU


Station Type Date Time Source
OAKB Decoded METAR 2019/08/18 08:50 UTC NOAA

Station name not available
Aug 18, 2019 - 04:50 AM EDT / 2019.08.18 0850 UTC
Wind: from the E (080 degrees) at 8 MPH (7 KT) (direction variable):0
Visibility: greater than 7 mile(s):0
Sky conditions: mostly clear
Temperature: 86 F (30 C)
Dew Point: 26 F (-3 C)
Relative Humidity: 11%
Pressure (altimeter): 29.91 in. Hg (1013 hPa)
ob: OAKB 180850Z 08007KT 020V170 9999 FEW080 30/M03 Q1013 NOSIG RMK A2993 BLU BLU
cycle: 9

Station Type Date Time Source
OAKB TAF 2019/08/18 06:05 UTC NOAA

TAF OAKB 180505Z 1806/1906 01012KT FEW060
TEMPO 1810/1816 03015G25KT
BECMG 1818/1820 VRB02KT CAVOK

Example: see airport list